Pagrindinis puslapis
METAR-TAF:

METAR-TAF

Oro uostai :

Bobo Diulaso oro uostas

Bobo Diulasas, Burkina Fasas

platuma: 11-10N, ilguma: 004-19W, Aukštis: 460 m

Dabartinis oras

Ataskaita buvo paskelbta 32 minutes, ne 06:00 UTC
Ramus vėjas
Temperatūra 25°C
Drėgmė 50%
Slėgis 1011 hPa
Matomumas 10 km arba daugiau
nėra debesų žemiau 1500 m ir nėra kamuolinių lietaus debesų

METAR: DFOO 180600Z 00000KT CAVOK 25/14 Q1011

Laikas: 06:32 (06:32 UTC)

Prognozė

Ataskaita buvo paskelbta 1 valandą ir 32 minutes, ne 05:00 UTC
Prognozė galioja nuo 18 metu 06 UTC su 19 metu 06 UTC
Vėjas 8 kt iš Šiaurės Rytų
Matomumas: 8000 m
Laikinai
nuo 18 metu 06 UTC su 18 metu 09 UTC
Matomumas: 4000 m
migla,

TAF: DFOO 180500Z 1806/1906 04008KT 8000 NSC TEMPO 1806/1809 4000 HZ

Orai ataskaitas ir orų prognozės (METAR, TAF).

turimą stotys yra geltonos ir raudonos taškus žemėlapyje.

Perkelti pele per norėdami pamatyti stoties vardą.

Tada spustelėkite, norėdami matyti oro stebėjimo ir prognozės.

Norėdami pakeisti žemėlapį: spustelėkite ant žalios mygtukų su juodo kryžiaus žemyn,; žalią mygtuką su brūkšneliu, jei norite nutolinti; arba žalių rodyklių gretimoms žemėlapius.


METAR-TAF: